Time;durP1;ratioP1;P1;durP2;ratioP2;P2;SDS_P1;SDS_P2;PMS_P1;PMS_P2;Temp;Humidity;BMP_temperature;BMP_pressure;BME280_temperature;BME280_humidity;BME280_pressure;Samples;Min_cycle;Max_cycle;Signal;HPM_P1;HPM_P2
2022/07/21 00:01:01;;;;;;;12.13;9.02;;;20.50;99.90;;;;;;4884476;28;89745;-32
2022/07/21 00:03:27;;;;;;;9.02;7.30;;;20.40;99.90;;;;;;4868711;28;88929;-34
2022/07/21 00:05:52;;;;;;;11.90;7.38;;;20.40;99.90;;;;;;4884506;28;90792;-35
2022/07/21 00:08:18;;;;;;;12.02;7.75;;;20.30;99.90;;;;;;4885056;28;89704;-36
2022/07/21 00:10:43;;;;;;;8.95;7.35;;;20.40;99.90;;;;;;4952532;23;89430;-34
2022/07/21 00:13:09;;;;;;;14.90;8.48;;;20.40;99.90;;;;;;4943264;28;88553;-35
2022/07/21 00:15:34;;;;;;;8.43;7.38;;;20.40;99.90;;;;;;4943148;28;90255;-33
2022/07/21 00:18:00;;;;;;;9.48;7.78;;;20.40;99.90;;;;;;4941993;28;89644;-32
2022/07/21 00:20:27;;;;;;;13.07;9.45;;;20.40;99.90;;;;;;4943359;28;89921;-36
2022/07/21 00:22:53;;;;;;;9.82;8.07;;;20.40;99.90;;;;;;4943584;28;89159;-33
2022/07/21 00:25:19;;;;;;;15.38;9.88;;;20.30;99.90;;;;;;4941448;28;90216;-33
2022/07/21 00:27:45;;;;;;;11.88;9.60;;;20.30;99.90;;;;;;4943508;28;89469;-32
2022/07/21 00:30:12;;;;;;;15.10;9.38;;;20.30;99.90;;;;;;4941641;28;89694;-32
2022/07/21 00:32:38;;;;;;;12.15;9.27;;;20.20;99.90;;;;;;4942341;28;89934;-35
2022/07/21 00:35:06;;;;;;;16.75;9.95;;;20.20;99.90;;;;;;4942532;28;90075;-33
2022/07/21 00:37:31;;;;;;;16.35;9.77;;;20.10;99.90;;;;;;4942980;28;90024;-31
2022/07/21 00:39:57;;;;;;;14.00;9.30;;;20.10;99.90;;;;;;4942771;28;89452;-33
2022/07/21 00:42:28;;;;;;;13.60;8.95;;;20.00;99.90;;;;;;4942753;28;90263;-32
2022/07/21 00:44:55;;;;;;;13.70;10.07;;;20.00;99.90;;;;;;4934340;28;91488;-33
2022/07/21 00:47:22;;;;;;;12.68;9.25;;;20.00;99.90;;;;;;4936350;28;89862;-33
2022/07/21 00:49:49;;;;;;;16.77;9.35;;;20.00;99.90;;;;;;4941500;28;89135;-33
2022/07/21 00:52:15;;;;;;;14.05;10.93;;;19.90;99.90;;;;;;4942716;28;89375;-32
2022/07/21 00:54:41;;;;;;;17.30;11.05;;;19.90;99.90;;;;;;4941642;28;90652;-32
2022/07/21 00:57:07;;;;;;;16.55;9.73;;;19.90;99.90;;;;;;4941015;28;89683;-32
2022/07/21 00:59:33;;;;;;;14.85;10.05;;;19.90;99.90;;;;;;4942224;28;89617;-35
2022/07/21 01:01:58;;;;;;;15.63;11.18;;;19.90;99.90;;;;;;4941357;28;88895;-35
2022/07/21 01:04:26;;;;;;;14.18;10.82;;;19.90;99.90;;;;;;4941113;28;90508;-33
2022/07/21 01:06:53;;;;;;;15.00;11.23;;;19.80;99.90;;;;;;4941419;28;90548;-33
2022/07/21 01:09:20;;;;;;;11.93;9.90;;;19.80;99.90;;;;;;4941209;28;88935;-33
2022/07/21 01:11:46;;;;;;;14.55;10.55;;;19.80;99.90;;;;;;4941626;28;88094;-33
2022/07/21 01:14:12;;;;;;;12.10;9.45;;;19.80;99.90;;;;;;4940944;28;90236;-33
2022/07/21 01:16:38;;;;;;;14.88;10.15;;;19.70;99.90;;;;;;4941563;28;90882;-32
2022/07/21 01:19:06;;;;;;;12.35;10.20;;;19.70;99.90;;;;;;4940887;28;90443;-35
2022/07/21 01:21:34;;;;;;;17.00;10.75;;;19.70;99.90;;;;;;4941369;28;87929;-34
2022/07/21 01:24:01;;;;;;;19.20;11.73;;;19.60;99.90;;;;;;4941100;28;90651;-34
2022/07/21 01:26:27;;;;;;;16.30;11.00;;;19.60;99.90;;;;;;4940791;28;88934;-35
2022/07/21 01:28:53;;;;;;;20.90;11.30;;;19.60;99.90;;;;;;4941207;28;88287;-36
2022/07/21 01:31:19;;;;;;;17.33;11.40;;;19.60;99.90;;;;;;4941217;28;89771;-31
2022/07/21 01:33:45;;;;;;;12.30;9.82;;;19.60;99.90;;;;;;4940499;28;89349;-31
2022/07/21 01:36:11;;;;;;;16.38;10.75;;;19.50;99.90;;;;;;4941811;28;89900;-32
2022/07/21 01:41:30;;;;;;;10.75;9.07;;;19.50;99.90;;;;;;4941092;28;88946;-31
2022/07/21 01:43:57;;;;;;;16.73;11.05;;;19.50;99.90;;;;;;4941258;28;91151;-35
2022/07/21 01:46:22;;;;;;;15.07;9.57;;;19.50;99.90;;;;;;4927400;28;89994;-34
2022/07/21 01:48:48;;;;;;;17.30;10.95;;;19.50;99.90;;;;;;4942003;28;90538;-32
2022/07/21 01:51:14;;;;;;;15.30;10.63;;;19.50;99.90;;;;;;4940761;28;89625;-32
2022/07/21 01:53:40;;;;;;;15.25;10.23;;;19.50;99.90;;;;;;4940365;28;90818;-34
2022/07/21 01:56:06;;;;;;;13.98;10.60;;;19.40;99.90;;;;;;4940628;28;89846;-30
2022/07/21 01:58:33;;;;;;;15.38;10.75;;;19.50;99.90;;;;;;4940105;28;87927;-33
2022/07/21 02:00:58;;;;;;;17.13;11.05;;;19.50;99.90;;;;;;4940396;28;88857;-34
2022/07/21 02:03:24;;;;;;;14.38;11.55;;;19.50;99.90;;;;;;4940057;28;92318;-33
2022/07/21 02:05:50;;;;;;;14.27;11.18;;;19.50;99.90;;;;;;4940312;28;89752;-30
2022/07/21 02:08:15;;;;;;;19.23;12.15;;;19.40;99.90;;;;;;4940601;28;89707;-32
2022/07/21 02:10:41;;;;;;;13.90;11.15;;;19.40;99.90;;;;;;4939661;28;87721;-33
2022/07/21 02:13:08;;;;;;;16.70;12.60;;;19.40;99.90;;;;;;4940079;28;91244;-32
2022/07/21 02:15:33;;;;;;;17.20;12.70;;;19.40;99.90;;;;;;4940409;28;90010;-31
2022/07/21 02:17:59;;;;;;;16.38;13.63;;;19.30;99.90;;;;;;4939995;28;89497;-34
2022/07/21 02:20:25;;;;;;;20.95;13.52;;;19.30;99.90;;;;;;4941081;28;88295;-34
2022/07/21 02:22:51;;;;;;;15.45;13.30;;;19.30;99.90;;;;;;4939825;28;89263;-31
2022/07/21 02:25:18;;;;;;;18.65;12.63;;;19.30;99.90;;;;;;4939345;28;89544;-31
2022/07/21 02:27:45;;;;;;;24.10;13.30;;;19.30;99.90;;;;;;4940164;28;89445;-31
2022/07/21 02:30:12;;;;;;;21.60;13.15;;;19.30;99.90;;;;;;4940116;28;89822;-32
2022/07/21 02:32:38;;;;;;;12.13;10.93;;;19.30;99.90;;;;;;4939423;28;90327;-35
2022/07/21 02:35:04;;;;;;;16.35;14.30;;;19.30;99.90;;;;;;4940040;28;89447;-30
2022/07/21 02:37:30;;;;;;;17.38;14.15;;;19.30;99.90;;;;;;4939724;28;89931;-32
2022/07/21 02:39:55;;;;;;;17.25;13.98;;;19.30;99.90;;;;;;4940191;28;88995;-35
2022/07/21 02:42:21;;;;;;;15.38;12.20;;;19.30;99.90;;;;;;4929631;28;90378;-33
2022/07/21 02:44:46;;;;;;;16.70;12.98;;;19.30;99.90;;;;;;4920613;28;89710;-36
2022/07/21 02:47:12;;;;;;;20.05;13.52;;;19.30;99.90;;;;;;4923411;28;89685;-31
2022/07/21 02:49:38;;;;;;;19.77;12.38;;;19.30;99.90;;;;;;4940413;28;89615;-31
2022/07/21 02:52:05;;;;;;;14.52;12.38;;;19.20;99.90;;;;;;4925483;28;90064;-33
2022/07/21 02:54:31;;;;;;;12.95;11.57;;;19.20;99.90;;;;;;4939882;28;90639;-33
2022/07/21 02:56:57;;;;;;;14.77;12.23;;;19.20;99.90;;;;;;4939479;28;89492;-32
2022/07/21 02:59:22;;;;;;;13.45;12.07;;;19.20;99.90;;;;;;4930496;28;87834;-33
2022/07/21 03:01:48;;;;;;;14.43;13.02;;;19.20;99.90;;;;;;4934544;28;90150;-35
2022/07/21 03:04:15;;;;;;;16.88;13.38;;;19.20;99.90;;;;;;4940513;28;89509;-31
2022/07/21 03:06:42;;;;;;;13.60;11.38;;;19.10;99.90;;;;;;4939469;28;89734;-31
2022/07/21 03:09:08;;;;;;;14.87;12.03;;;19.10;99.90;;;;;;4939579;28;88793;-33
2022/07/21 03:11:34;;;;;;;14.10;11.77;;;19.20;99.90;;;;;;4939536;28;89705;-34
2022/07/21 03:14:00;;;;;;;20.52;12.35;;;19.10;99.90;;;;;;4938661;28;89836;-33
2022/07/21 03:16:25;;;;;;;16.88;11.63;;;19.10;99.90;;;;;;4930247;28;90966;-32
2022/07/21 03:18:51;;;;;;;14.50;12.73;;;19.10;99.90;;;;;;4934754;28;88623;-34
2022/07/21 03:21:16;;;;;;;12.73;11.32;;;19.10;99.90;;;;;;4938911;28;90426;-34
2022/07/21 03:23:45;;;;;;;15.80;12.63;;;19.10;99.90;;;;;;4939524;28;89493;-32
2022/07/21 03:26:12;;;;;;;17.20;12.68;;;19.10;99.90;;;;;;4939368;28;89607;-35
2022/07/21 03:28:39;;;;;;;14.95;13.45;;;19.10;99.90;;;;;;4940248;28;89254;-34
2022/07/21 03:31:05;;;;;;;15.57;13.07;;;19.10;99.90;;;;;;4939100;28;89917;-32
2022/07/21 03:33:31;;;;;;;16.42;12.23;;;19.10;99.90;;;;;;4939364;28;90293;-30
2022/07/21 03:35:58;;;;;;;19.48;13.30;;;19.10;99.90;;;;;;4939128;28;90412;-33
2022/07/21 03:38:24;;;;;;;14.90;13.40;;;19.10;99.90;;;;;;4938776;28;88555;-34
2022/07/21 03:40:50;;;;;;;14.48;13.05;;;19.10;99.90;;;;;;4939089;28;90385;-33
2022/07/21 03:43:16;;;;;;;15.48;13.50;;;19.10;99.90;;;;;;4939325;28;90058;-31
2022/07/21 03:45:41;;;;;;;14.95;13.30;;;19.10;99.90;;;;;;4939314;28;90585;-36
2022/07/21 03:48:08;;;;;;;19.08;14.07;;;19.10;99.90;;;;;;4921654;28;88374;-32
2022/07/21 03:50:39;;;;;;;16.92;12.27;;;19.20;99.90;;;;;;4930284;28;89086;-30
2022/07/21 03:53:06;;;;;;;14.80;12.95;;;19.20;99.90;;;;;;4934471;28;90218;-32
2022/07/21 03:55:32;;;;;;;17.95;13.70;;;19.20;99.90;;;;;;4939595;28;89128;-33
2022/07/21 03:58:00;;;;;;;17.35;15.52;;;19.20;99.90;;;;;;4939462;28;89249;-32
2022/07/21 04:00:34;;;;;;;16.02;14.35;;;19.10;99.90;;;;;;4925656;28;90719;-32
2022/07/21 04:03:00;;;;;;;17.08;15.25;;;19.20;99.90;;;;;;4938902;28;89691;-33
2022/07/21 04:05:27;;;;;;;16.08;14.38;;;19.10;99.90;;;;;;4938637;28;89774;-32
2022/07/21 04:07:53;;;;;;;20.23;14.57;;;19.20;99.90;;;;;;4938991;28;88348;-34
2022/07/21 04:10:26;;;;;;;23.88;16.58;;;19.20;99.90;;;;;;4938054;28;90233;-35
2022/07/21 04:12:52;;;;;;;18.23;16.15;;;19.20;99.90;;;;;;4938517;28;89847;-33
2022/07/21 04:15:18;;;;;;;19.42;15.18;;;19.20;99.90;;;;;;4938632;28;89879;-30
2022/07/21 04:17:44;;;;;;;23.52;17.00;;;19.20;99.90;;;;;;4939062;28;88214;-33
2022/07/21 04:20:12;;;;;;;26.30;18.25;;;19.20;99.90;;;;;;4938161;28;90164;-31
2022/07/21 04:22:38;;;;;;;18.83;14.10;;;19.30;99.90;;;;;;4939632;28;88320;-34
2022/07/21 04:25:05;;;;;;;17.92;14.07;;;19.20;99.90;;;;;;4938438;28;90544;-32
2022/07/21 04:27:31;;;;;;;19.07;17.07;;;19.20;99.90;;;;;;4937962;28;89640;-30
2022/07/21 04:29:56;;;;;;;20.90;17.00;;;19.30;99.90;;;;;;4938632;28;91427;-30
2022/07/21 04:32:22;;;;;;;23.35;16.73;;;19.30;99.90;;;;;;4938479;28;89738;-32
2022/07/21 04:34:48;;;;;;;20.27;17.83;;;19.30;99.90;;;;;;4938787;28;89641;-32
2022/07/21 04:37:13;;;;;;;24.05;17.95;;;19.30;99.90;;;;;;4938650;28;88812;-30
2022/07/21 04:39:39;;;;;;;28.75;21.48;;;19.30;99.90;;;;;;4938446;28;89392;-32
2022/07/21 04:42:05;;;;;;;20.35;18.00;;;19.30;99.90;;;;;;4938856;28;89864;-31
2022/07/21 04:44:31;;;;;;;25.38;20.08;;;19.30;99.90;;;;;;4938891;28;89433;-30
2022/07/21 04:46:56;;;;;;;22.73;19.85;;;19.20;99.90;;;;;;4942270;28;89559;-35
2022/07/21 04:49:22;;;;;;;23.35;19.75;;;19.20;99.90;;;;;;4941276;28;90561;-33
2022/07/21 04:51:48;;;;;;;22.67;20.33;;;19.20;99.90;;;;;;4927964;28;89373;-33
2022/07/21 04:54:13;;;;;;;22.85;20.55;;;19.20;99.90;;;;;;4942061;28;90682;-31
2022/07/21 04:56:43;;;;;;;21.92;18.92;;;19.10;99.90;;;;;;4941529;28;88441;-34
2022/07/21 04:59:09;;;;;;;22.90;20.05;;;19.10;99.90;;;;;;4941185;28;90110;-33
2022/07/21 05:01:36;;;;;;;22.48;17.90;;;19.10;99.90;;;;;;4941683;28;90208;-30
2022/07/21 05:04:01;;;;;;;19.63;17.52;;;19.10;99.90;;;;;;4941846;28;90739;-31
2022/07/21 05:06:27;;;;;;;20.30;18.15;;;19.10;99.90;;;;;;4941054;28;87551;-30
2022/07/21 05:08:53;;;;;;;22.65;18.27;;;19.00;99.90;;;;;;4941814;28;90929;-32
2022/07/21 05:11:18;;;;;;;21.00;17.83;;;19.10;99.90;;;;;;4940760;28;90113;-32
2022/07/21 05:13:44;;;;;;;17.80;15.85;;;19.10;99.90;;;;;;4941245;28;88453;-33
2022/07/21 05:16:10;;;;;;;19.20;17.20;;;19.10;99.90;;;;;;4941140;28;89757;-32
2022/07/21 05:18:36;;;;;;;22.63;19.10;;;19.10;99.90;;;;;;4940672;28;90204;-36
2022/07/21 05:21:01;;;;;;;21.90;19.13;;;19.10;99.90;;;;;;4941286;28;89627;-30
2022/07/21 05:23:27;;;;;;;23.35;18.52;;;19.10;99.90;;;;;;4940749;28;89651;-31
2022/07/21 05:25:52;;;;;;;23.33;20.80;;;19.10;99.90;;;;;;4941425;28;87781;-32
2022/07/21 05:28:18;;;;;;;23.73;19.77;;;19.20;99.90;;;;;;4940520;28;90236;-32
2022/07/21 05:30:43;;;;;;;24.58;20.58;;;19.20;99.90;;;;;;4941626;28;90435;-31
2022/07/21 05:33:09;;;;;;;24.48;21.90;;;19.30;99.90;;;;;;4941238;28;89518;-30
2022/07/21 05:35:35;;;;;;;32.28;22.60;;;19.30;99.90;;;;;;4941047;28;89780;-35
2022/07/21 05:38:01;;;;;;;30.50;23.83;;;19.30;99.90;;;;;;4941291;28;90867;-30
2022/07/21 05:40:27;;;;;;;37.47;25.17;;;19.40;99.90;;;;;;4941120;28;89773;-33
2022/07/21 05:42:52;;;;;;;27.25;21.33;;;19.40;99.90;;;;;;4941056;28;89615;-33
2022/07/21 05:45:18;;;;;;;27.52;24.30;;;19.40;99.90;;;;;;4941369;28;89585;-33
2022/07/21 05:47:43;;;;;;;29.30;26.20;;;19.40;99.90;;;;;;4940650;28;90059;-31
2022/07/21 05:50:10;;;;;;;30.77;23.63;;;19.50;99.90;;;;;;4935139;28;90966;-31
2022/07/21 05:52:35;;;;;;;28.20;24.83;;;19.50;99.90;;;;;;4932904;28;89670;-31
2022/07/21 05:55:01;;;;;;;26.58;23.42;;;19.50;99.90;;;;;;4940880;28;88450;-30
2022/07/21 05:57:27;;;;;;;26.38;23.45;;;19.50;99.90;;;;;;4939935;28;88748;-31
2022/07/21 05:59:52;;;;;;;25.27;22.35;;;19.50;99.90;;;;;;4940607;28;90332;-35
2022/07/21 06:02:18;;;;;;;26.40;23.67;;;19.60;99.90;;;;;;4940325;28;89478;-32
2022/07/21 06:04:44;;;;;;;25.45;22.85;;;19.50;99.90;;;;;;4940904;28;88654;-31
2022/07/21 06:07:09;;;;;;;26.45;22.20;;;19.60;99.90;;;;;;4938182;28;90014;-31
2022/07/21 06:09:35;;;;;;;24.27;21.73;;;19.60;99.90;;;;;;4939408;28;88890;-33
2022/07/21 06:12:01;;;;;;;25.33;22.00;;;19.50;99.90;;;;;;4940053;28;89754;-32
2022/07/21 06:14:27;;;;;;;24.25;21.80;;;19.60;99.90;;;;;;4940956;28;89925;-30
2022/07/21 06:16:52;;;;;;;27.13;24.45;;;19.60;99.90;;;;;;4940009;28;90364;-33
2022/07/21 06:19:18;;;;;;;25.55;22.90;;;19.60;99.90;;;;;;4940402;28;89832;-30
2022/07/21 06:21:44;;;;;;;26.63;23.13;;;19.60;99.90;;;;;;4939610;28;90918;-32
2022/07/21 06:24:10;;;;;;;24.60;21.30;;;19.70;99.90;;;;;;4940313;28;88085;-31
2022/07/21 06:26:36;;;;;;;25.80;22.42;;;19.60;99.90;;;;;;4929916;28;90239;-31
2022/07/21 06:29:01;;;;;;;25.80;23.00;;;19.60;99.90;;;;;;4926076;28;89650;-32
2022/07/21 06:31:27;;;;;;;25.55;22.90;;;19.60;99.90;;;;;;4939689;28;90316;-32
2022/07/21 06:33:53;;;;;;;21.90;19.73;;;19.50;99.90;;;;;;4939884;28;88481;-31
2022/07/21 06:36:18;;;;;;;23.48;21.15;;;19.50;99.90;;;;;;4940283;28;90499;-31
2022/07/21 06:38:44;;;;;;;24.42;21.55;;;19.50;99.90;;;;;;4939661;28;90043;-32
2022/07/21 06:41:10;;;;;;;27.67;19.65;;;19.50;99.90;;;;;;4940474;28;89515;-34
2022/07/21 06:43:36;;;;;;;23.98;21.08;;;19.40;99.90;;;;;;4940290;28;87974;-31
2022/07/21 06:46:02;;;;;;;26.00;22.02;;;19.40;99.90;;;;;;4939356;28;89121;-31
2022/07/21 06:48:28;;;;;;;25.50;22.65;;;19.40;99.90;;;;;;4939712;28;90926;-32
2022/07/21 06:50:55;;;;;;;25.92;22.98;;;19.40;99.90;;;;;;4928543;28;88739;-34
2022/07/21 06:53:21;;;;;;;23.80;21.30;;;19.40;99.90;;;;;;4937438;28;89923;-31
2022/07/21 06:55:47;;;;;;;32.88;24.25;;;19.40;99.90;;;;;;4939313;28;90197;-31
2022/07/21 06:58:16;;;;;;;26.52;22.30;;;19.40;99.90;;;;;;4921198;28;88528;-34
2022/07/21 07:00:42;;;;;;;27.58;21.20;;;19.40;99.90;;;;;;4939786;28;89612;-31
2022/07/21 07:03:08;;;;;;;22.92;20.65;;;19.50;99.90;;;;;;4942060;28;88884;-31
2022/07/21 07:05:34;;;;;;;23.77;21.27;;;19.50;99.90;;;;;;4944649;28;90446;-31
2022/07/21 07:08:00;;;;;;;25.88;23.25;;;19.50;99.90;;;;;;4949962;28;89657;-33
2022/07/21 07:10:26;;;;;;;28.42;23.55;;;19.60;99.90;;;;;;4950509;28;89160;-30
2022/07/21 07:12:52;;;;;;;30.58;23.98;;;19.60;99.90;;;;;;4951622;28;88368;-32
2022/07/21 07:15:18;;;;;;;28.88;23.15;;;19.70;99.90;;;;;;4949289;28;90479;-35
2022/07/21 07:17:43;;;;;;;27.85;23.75;;;19.80;99.90;;;;;;4933999;28;89881;-32
2022/07/21 07:20:10;;;;;;;27.45;24.55;;;19.90;99.90;;;;;;4938514;28;90136;-33
2022/07/21 07:22:36;;;;;;;24.35;21.10;;;20.00;99.90;;;;;;4944486;28;90512;-31
2022/07/21 07:25:01;;;;;;;30.20;24.33;;;20.00;99.90;;;;;;4942945;28;90154;-32
2022/07/21 07:27:27;;;;;;;25.15;22.48;;;20.00;99.90;;;;;;4941345;28;89540;-35
2022/07/21 07:29:53;;;;;;;28.02;22.67;;;20.00;99.90;;;;;;4936984;28;89568;-34
2022/07/21 07:32:18;;;;;;;32.53;21.98;;;20.00;99.90;;;;;;4949056;28;88063;-31
2022/07/21 07:34:44;;;;;;;29.45;26.27;;;20.10;99.90;;;;;;4952842;28;90256;-31
2022/07/21 07:37:09;;;;;;;24.92;22.15;;;20.20;99.90;;;;;;4952328;28;89022;-31
2022/07/21 07:39:37;;;;;;;28.73;24.33;;;20.20;99.90;;;;;;4951761;28;88930;-32
2022/07/21 07:42:04;;;;;;;27.58;23.92;;;20.30;99.90;;;;;;4951707;28;89577;-31
2022/07/21 07:44:30;;;;;;;27.67;24.63;;;20.30;99.90;;;;;;4951900;28;90398;-33
2022/07/21 07:46:56;;;;;;;30.45;26.10;;;20.40;99.90;;;;;;4952279;28;90306;-32
2022/07/21 07:49:21;;;;;;;28.08;22.98;;;20.50;99.90;;;;;;4952397;28;89248;-32
2022/07/21 07:51:48;;;;;;;30.33;23.83;;;20.60;99.90;;;;;;4939376;28;88881;-35
2022/07/21 07:54:14;;;;;;;29.33;26.23;;;20.60;99.90;;;;;;4953432;28;90395;-32
2022/07/21 07:56:40;;;;;;;28.45;25.50;;;20.70;99.90;;;;;;4952967;28;89497;-32
2022/07/21 07:59:05;;;;;;;29.88;23.55;;;20.70;99.90;;;;;;4952867;28;89549;-31
2022/07/21 08:01:31;;;;;;;28.95;22.55;;;20.80;99.90;;;;;;4953401;28;88518;-31
2022/07/21 08:03:56;;;;;;;29.42;23.13;;;20.80;99.90;;;;;;4953068;28;90238;-32
2022/07/21 08:06:22;;;;;;;31.42;25.98;;;20.80;99.90;;;;;;4952702;28;89671;-31
2022/07/21 08:08:48;;;;;;;26.15;22.08;;;20.80;99.90;;;;;;4952175;28;89550;-34
2022/07/21 08:11:15;;;;;;;25.50;22.90;;;20.70;99.90;;;;;;4952753;28;87682;-31
2022/07/21 08:13:41;;;;;;;26.25;22.85;;;20.80;99.90;;;;;;4952965;28;90157;-32
2022/07/21 08:16:07;;;;;;;25.50;22.90;;;21.00;99.90;;;;;;4953264;28;89492;-31
2022/07/21 08:18:32;;;;;;;25.20;22.35;;;21.30;99.90;;;;;;4952808;28;90710;-32
2022/07/21 08:20:58;;;;;;;26.85;22.98;;;21.70;99.90;;;;;;4955128;28;88008;-32
2022/07/21 08:23:24;;;;;;;25.23;22.58;;;21.90;99.90;;;;;;4938998;28;90188;-33
2022/07/21 08:25:49;;;;;;;26.67;23.00;;;22.20;99.90;;;;;;4956353;28;89670;-33
2022/07/21 08:28:15;;;;;;;23.13;18.60;;;22.50;99.90;;;;;;4956203;28;89114;-31
2022/07/21 08:30:41;;;;;;;22.98;20.45;;;22.70;99.90;;;;;;4956009;28;87750;-34
2022/07/21 08:33:07;;;;;;;21.17;19.02;;;22.90;99.90;;;;;;4955433;28;90492;-32
2022/07/21 08:35:34;;;;;;;25.83;23.08;;;23.10;99.90;;;;;;4955865;28;89164;-32
2022/07/21 08:38:05;;;;;;;21.90;19.30;;;23.30;99.90;;;;;;4955709;28;90070;-35
2022/07/21 08:40:35;;;;;;;28.08;21.25;;;23.30;99.90;;;;;;4956254;28;88114;-35
2022/07/21 08:43:01;;;;;;;24.08;19.40;;;23.30;99.90;;;;;;4955872;28;89956;-32
2022/07/21 08:45:30;;;;;;;22.70;20.33;;;23.10;99.90;;;;;;4955795;28;89411;-32
2022/07/21 08:47:57;;;;;;;23.17;20.65;;;23.00;99.90;;;;;;4955499;28;88810;-32
2022/07/21 08:50:25;;;;;;;24.93;21.10;;;22.90;99.90;;;;;;4947338;28;88916;-32
2022/07/21 08:52:51;;;;;;;26.90;20.92;;;22.70;99.90;;;;;;4949639;28;89179;-34
2022/07/21 08:55:17;;;;;;;25.00;21.40;;;22.60;99.90;;;;;;4955739;28;88796;-33
2022/07/21 08:57:43;;;;;;;23.25;20.27;;;22.60;99.90;;;;;;4945892;28;90346;-31
2022/07/21 09:00:10;;;;;;;24.65;21.85;;;22.60;99.90;;;;;;4955915;28;87667;-31
2022/07/21 09:02:37;;;;;;;21.13;19.02;;;22.60;99.90;;;;;;4955776;28;90618;-32
2022/07/21 09:05:05;;;;;;;24.60;21.50;;;22.60;99.90;;;;;;4955176;28;89943;-31
2022/07/21 09:07:47;;;;;;;;;;;22.50;99.90;;;;;;4956628;28;88608;-32
2022/07/21 09:10:13;;;;;;;25.73;21.13;;;22.50;99.90;;;;;;4957299;28;88119;-32
2022/07/21 09:12:51;;;;;;;24.80;22.15;;;22.50;99.90;;;;;;4955703;28;90339;-31
2022/07/21 09:15:19;;;;;;;26.08;22.38;;;22.70;99.90;;;;;;4955520;28;88963;-32
2022/07/21 09:17:45;;;;;;;23.52;20.88;;;22.80;99.90;;;;;;4955604;28;89071;-30
2022/07/21 09:20:24;;;;;;;20.90;17.38;;;22.80;99.90;;;;;;4955345;28;87942;-32
2022/07/21 09:23:11;;;;;;;21.88;19.58;;;22.80;99.90;;;;;;4954740;28;90798;-33
2022/07/21 09:25:49;;;;;;;20.80;18.70;;;22.90;99.90;;;;;;4955508;28;89225;-31
2022/07/21 09:28:19;;;;;;;27.48;19.08;;;22.80;99.90;;;;;;4954912;28;88623;-33
2022/07/21 09:30:54;;;;;;;21.15;18.90;;;22.80;99.90;;;;;;4955099;28;88062;-33
2022/07/21 09:33:22;;;;;;;22.13;19.85;;;22.80;99.90;;;;;;4954707;28;90979;-32
2022/07/21 09:36:00;;;;;;;21.15;18.83;;;22.90;99.90;;;;;;4937790;28;88580;-32
2022/07/21 09:38:27;;;;;;;21.85;19.50;;;23.00;99.90;;;;;;4955408;28;89840;-32
2022/07/21 09:40:53;;;;;;;20.38;18.15;;;23.00;99.90;;;;;;4955368;28;87694;-32
2022/07/21 09:43:33;;;;;;;20.65;17.67;;;23.00;99.90;;;;;;4954931;28;89806;-31
2022/07/21 09:46:05;;;;;;;19.75;17.48;;;23.00;99.90;;;;;;4949073;28;90348;-32
2022/07/21 09:48:32;;;;;;;20.52;17.40;;;23.20;99.90;;;;;;4953835;28;89539;-32
2022/07/21 09:51:19;;;;;;;18.77;16.90;;;23.20;99.90;;;;;;4952152;28;88237;-31
2022/07/21 09:54:09;;;;;;;22.50;20.10;;;23.20;99.90;;;;;;4954163;28;90368;-32
2022/07/21 09:56:40;;;;;;;26.27;18.73;;;23.10;99.90;;;;;;4941295;28;90004;-32
2022/07/21 09:59:08;;;;;;;22.08;19.42;;;23.00;99.90;;;;;;4950793;28;89692;-30
2022/07/21 10:01:38;;;;;;;22.20;19.73;;;22.90;99.90;;;;;;4954841;28;88011;-33
2022/07/21 10:04:05;;;;;;;22.23;19.90;;;22.90;99.90;;;;;;4952480;28;90353;-33
2022/07/21 10:06:34;;;;;;;23.10;19.95;;;22.90;99.90;;;;;;4953082;28;88518;-31
2022/07/21 10:09:01;;;;;;;19.27;17.27;;;22.80;99.90;;;;;;4952713;28;88833;-31
2022/07/21 10:11:27;;;;;;;21.23;18.77;;;22.70;99.90;;;;;;4951630;28;87982;-32
2022/07/21 10:13:53;;;;;;;20.38;18.27;;;22.70;99.90;;;;;;4952145;28;90733;-33
2022/07/21 10:16:20;;;;;;;22.90;19.73;;;22.70;99.90;;;;;;4951501;28;89675;-32
2022/07/21 10:19:04;;;;;;;25.05;20.58;;;22.60;99.90;;;;;;4951623;28;89602;-34
2022/07/21 10:21:50;;;;;;;24.77;20.38;;;22.70;99.90;;;;;;4952434;28;87958;-34
2022/07/21 10:24:16;;;;;;;25.33;20.10;;;22.80;99.90;;;;;;4950070;28;89682;-32
2022/07/21 10:27:15;;;;;;;23.67;20.98;;;22.80;99.90;;;;;;4943714;28;89541;-34
2022/07/21 10:30:00;;;;;;;24.77;20.65;;;22.80;99.90;;;;;;4897494;28;89426;-32
2022/07/21 10:32:27;;;;;;;27.05;22.75;;;22.70;99.90;;;;;;4951592;28;87607;-31
2022/07/21 10:34:54;;;;;;;26.53;21.13;;;22.60;99.90;;;;;;4952719;28;90406;-36
2022/07/21 10:37:38;;;;;;;23.65;21.05;;;22.60;99.90;;;;;;4952326;28;89715;-31
2022/07/21 10:40:06;;;;;;;28.58;24.35;;;22.60;99.90;;;;;;4948650;28;89714;-33
2022/07/21 10:42:31;;;;;;;26.48;21.95;;;22.60;99.90;;;;;;4949178;28;88823;-32
2022/07/21 10:44:58;;;;;;;31.35;25.08;;;22.70;99.90;;;;;;4950038;28;90320;-32
2022/07/21 10:47:30;;;;;;;25.20;22.17;;;22.80;99.90;;;;;;4945109;28;89392;-34
2022/07/21 10:50:00;;;;;;;36.70;27.23;;;22.90;99.90;;;;;;4936617;28;89516;-34
2022/07/21 10:52:35;;;;;;;28.52;24.80;;;22.90;99.90;;;;;;4933283;28;88858;-31
2022/07/21 10:55:10;;;;;;;25.88;22.40;;;22.90;99.90;;;;;;4942349;28;90318;-32
2022/07/21 10:57:45;;;;;;;26.75;23.65;;;22.80;99.90;;;;;;4941217;28;89497;-31
2022/07/21 11:00:22;;;;;;;28.60;25.60;;;22.80;99.90;;;;;;4941229;28;89347;-32
2022/07/21 11:02:57;;;;;;;33.17;28.08;;;22.70;99.90;;;;;;4945142;28;88410;-33
2022/07/21 11:05:25;;;;;;;30.58;25.48;;;22.80;99.90;;;;;;4946292;28;88690;-32
2022/07/21 11:08:13;;;;;;;31.55;24.95;;;22.80;99.90;;;;;;4946853;28;89305;-33
2022/07/21 11:10:45;;;;;;;35.08;28.40;;;22.90;99.90;;;;;;4936242;28;90020;-32
2022/07/21 11:13:12;;;;;;;33.63;27.10;;;22.90;99.90;;;;;;4948610;28;88319;-33
2022/07/21 11:16:04;;;;;;;27.45;24.35;;;23.00;99.90;;;;;;4949534;28;90309;-35
2022/07/21 11:18:32;;;;;;;36.97;25.42;;;23.00;99.90;;;;;;4932155;28;89798;-32
2022/07/21 11:21:11;;;;;;;33.85;25.52;;;23.00;99.90;;;;;;4948480;28;89434;-34
2022/07/21 11:23:48;;;;;;;31.83;24.73;;;23.00;99.90;;;;;;4951098;28;87587;-31
2022/07/21 11:26:23;;;;;;;30.63;25.13;;;23.00;99.90;;;;;;4949695;28;89247;-34
2022/07/21 11:29:04;;;;;;;26.20;22.05;;;23.10;99.90;;;;;;4948622;28;89692;-31
2022/07/21 11:31:29;;;;;;;30.67;22.95;;;23.20;99.90;;;;;;4949636;28;89152;-32
2022/07/21 11:33:55;;;;;;;24.88;22.30;;;23.20;99.90;;;;;;4948493;28;88678;-32
2022/07/21 11:36:29;;;;;;;27.48;24.00;;;23.30;99.90;;;;;;4944714;28;88870;-34
2022/07/21 11:38:58;;;;;;;27.50;22.98;;;23.50;99.90;;;;;;4946204;28;90027;-33
2022/07/21 11:41:26;;;;;;;28.55;23.30;;;23.60;99.90;;;;;;4945938;28;89618;-33
2022/07/21 11:43:51;;;;;;;29.10;23.37;;;23.80;99.90;;;;;;4947188;28;88890;-32
2022/07/21 11:46:17;;;;;;;23.98;21.40;;;24.00;99.90;;;;;;4944419;28;90525;-32
2022/07/21 11:48:42;;;;;;;24.40;20.90;;;24.20;99.90;;;;;;4945574;28;88495;-34
2022/07/21 11:51:08;;;;;;;24.42;20.95;;;24.20;99.90;;;;;;4932205;28;87916;-33
2022/07/21 11:53:34;;;;;;;28.70;20.92;;;24.20;99.90;;;;;;4946028;28;89046;-31
2022/07/21 11:55:59;;;;;;;25.30;19.23;;;24.20;99.90;;;;;;4945128;28;90339;-34
2022/07/21 11:58:25;;;;;;;19.42;16.05;;;24.10;99.90;;;;;;4948105;28;89651;-32
2022/07/21 12:01:05;;;;;;;19.33;14.93;;;24.00;99.90;;;;;;4951189;28;89832;-31
2022/07/21 12:03:31;;;;;;;20.00;15.35;;;23.70;99.90;;;;;;4950427;28;88186;-32
2022/07/21 12:05:57;;;;;;;19.77;16.70;;;23.30;99.90;;;;;;4948508;28;90831;-32
2022/07/21 12:08:23;;;;;;;20.83;16.35;;;23.10;99.90;;;;;;4948758;28;89717;-31
2022/07/21 12:10:49;;;;;;;21.52;17.50;;;22.80;99.90;;;;;;4978332;23;89586;-30
2022/07/21 12:13:15;;;;;;;21.42;19.13;;;22.60;99.90;;;;;;4946953;28;88362;-34
2022/07/21 12:15:41;;;;;;;26.35;20.27;;;22.30;99.90;;;;;;4945782;28;90014;-34
2022/07/21 12:18:24;;;;;;;29.52;22.92;;;22.10;99.90;;;;;;4946901;28;88660;-33
2022/07/21 12:21:01;;;;;;;28.13;22.58;;;21.80;99.90;;;;;;4946298;28;90136;-31
2022/07/21 12:23:30;;;;;;;40.47;26.17;;;21.50;99.90;;;;;;4947516;28;88148;-33
2022/07/21 12:26:00;;;;;;;30.98;24.27;;;21.20;99.90;;;;;;4949151;28;89286;-31
2022/07/21 12:28:46;;;;;;;34.15;25.98;;;21.10;99.90;;;;;;4949043;28;90205;-34
2022/07/21 12:31:16;;;;;;;32.15;25.73;;;20.90;99.90;;;;;;4936944;28;90055;-33
2022/07/21 12:33:42;;;;;;;33.15;26.85;;;20.70;99.90;;;;;;4949851;28;88175;-33